Latest Weather Observations for Amberley

IDQ60901

Issued at 11:01 pm EST Saturday 31 January 2015 (issued every 10 minutes, with the page automatically refreshed every 10 minutes)

About weather observations | Map of Brisbane area stations | Latest observations for Brisbane area | Other Formats
Station Details ID: 040004 Name: AMBERLEY AMO Lat: -27.63 Lon: 152.71 Height: 24.2 m
Data from the previous 72 hours. | See also: Recent months at Amberley
Date/Time
EST
Tmp

°C
App
Tmp
°C
Dew
Point
°C
Rel
Hum
%
Delta-T

°C
Wind Press
QNH
hPa
Press
MSL
hPa
Rain
since
9 am
mm
Dir
 
Spd
km/h
Gust
km/h
Spd
kts
Gust
kts
31/10:30pm 21.4 22.9 19.0 86 1.5 SSW 9 11 5 6 1007.2 - 0.0
31/10:00pm 21.3 22.8 18.9 86 1.5 S 9 11 5 6 1007.2 - 0.0
31/09:00pm 23.4 24.2 19.0 76 2.8 E 13 19 7 10 1006.9 1006.7 0.0
31/08:30pm 23.8 23.8 18.9 74 3.1 ENE 17 22 9 12 1006.4 - 0.0
31/08:00pm 23.8 24.2 18.9 74 3.1 E 15 22 8 12 1006.0 - 0.0
31/07:30pm 23.8 24.5 18.9 74 3.1 ESE 13 17 7 9 1005.7 - 0.0
31/07:00pm 24.2 25.1 19.2 73 3.2 ESE 13 15 7 8 1005.2 - 0.0
31/06:30pm 24.7 23.0 18.0 66 4.2 E 24 30 13 16 1004.5 - 0.0
31/06:00pm 25.6 24.1 18.5 65 4.5 NE 24 28 13 15 1004.0 1003.8 0.0
31/05:30pm 26.9 26.1 18.5 60 5.4 E 20 30 11 16 1003.7 - 0.0
31/05:00pm 28.5 28.5 20.2 60 5.5 ESE 20 28 11 15 1003.1 - 0.0
31/04:30pm 27.7 26.3 18.9 58 5.7 SSE 24 32 13 17 1003.3 - 0.0
31/04:00pm 29.9 27.7 16.9 45 8.2 S 24 32 13 17 1002.8 - 0.0
31/03:30pm 32.5 33.1 16.8 39 10.0 N 9 15 5 8 1002.4 - 0.0
31/03:00pm 33.6 33.2 17.1 37 10.6 NNW 15 24 8 13 1002.4 1002.2 0.0
31/02:30pm 33.1 33.1 18.2 41 9.7 N 15 22 8 12 1003.2 - 0.0
31/02:00pm 32.3 32.5 17.7 41 9.4 N 13 20 7 11 1003.5 - 0.0
31/01:30pm 32.0 33.0 18.6 45 8.7 N 11 20 6 11 1003.9 - 0.0
31/12:00pm 30.1 31.2 19.6 53 6.9 WNW 13 19 7 10 1005.8 1005.6 0.0
31/11:30am 29.6 30.1 19.2 53 6.8 NW 15 24 8 13 1006.4 - 0.0
31/11:00am 28.7 29.6 18.4 53 6.6 NNW 11 20 6 11 1007.1 - 0.0
31/10:30am 28.1 28.0 18.8 57 6.0 WNW 17 28 9 15 1007.6 - 0.0
31/10:00am 27.6 28.3 18.9 59 5.6 NNW 13 22 7 12 1007.9 - 0.0
31/09:30am 27.0 28.0 19.4 63 4.9 NW 13 19 7 10 1008.2 - 0.0
31/09:10am 26.7 27.3 19.4 64 4.7 NW 15 22 8 12 1008.3 - 0.0
31/09:00am 25.3 26.8 19.7 71 3.6 WNW 11 17 6 9 1008.3 1008.1 0.2
31/08:47am 25.8 28.4 20.5 72 3.5 WSW 7 11 4 6 1008.4 - 0.2
31/08:30am 25.0 27.9 19.9 73 3.3 W 4 9 2 5 1008.3 - 0.2
31/08:00am 23.8 26.3 19.8 78 2.6 SW 6 9 3 5 1008.4 - 0.2
31/07:00am 21.2 23.4 19.1 88 1.3 SW 6 9 3 5 1008.4 - 0.2
31/06:06am 18.5 21.3 18.0 97 0.3 CALM 0 0 0 0 1007.8 - 0.2
31/05:49am 17.8 20.4 17.5 98 0.2 CALM 0 0 0 0 1007.6 - 0.2
31/05:40am 17.8 20.4 17.5 98 0.2 CALM 0 0 0 0 1007.5 - 0.2
31/05:30am 18.0 20.7 17.7 98 0.2 CALM 0 0 0 0 1007.4 - 0.2
31/05:00am 17.6 20.0 17.1 97 0.3 CALM 0 0 0 0 1007.0 - 0.2
31/04:52am 18.2 20.9 17.7 97 0.3 CALM 0 0 0 0 1007.0 - 0.2
31/04:35am 18.4 21.2 17.9 97 0.3 CALM 0 0 0 0 1006.8 - 0.2
31/04:30am 18.4 21.2 17.9 97 0.3 CALM 0 0 0 0 1006.8 - 0.2
31/04:16am 18.1 20.7 17.6 97 0.3 CALM 0 0 0 0 1006.8 - 0.2
31/04:00am 18.6 21.4 18.0 96 0.4 CALM 0 0 0 0 1006.8 - 0.2
31/03:30am 18.7 21.5 17.9 95 0.5 CALM 0 0 0 0 1006.7 - 0.2
31/03:00am 18.5 21.3 18.0 97 0.3 CALM 0 0 0 0 1006.4 1006.2 0.2
31/02:30am 18.7 21.6 18.1 96 0.4 CALM 0 0 0 0 1006.2 - 0.2
31/02:00am 19.4 22.3 18.3 93 0.7 CALM 0 0 0 0 1006.4 - 0.2
31/01:30am 19.4 22.5 18.6 95 0.5 CALM 0 0 0 0 1006.5 - 0.2
31/12:30am 20.0 23.1 18.6 92 0.9 CALM 0 0 0 0 1007.1 - 0.2
 
Date/Time
EST
Tmp

°C
App
Tmp
°C
Dew
Point
°C
Rel
Hum
%
Delta-T

°C
Wind Press
QNH
hPa
Press
MSL
hPa
Rain
since
9 am
mm
Dir
 
Spd
km/h
Gust
km/h
Spd
kts
Gust
kts
30/11:30pm 20.3 22.7 18.9 92 0.9 WSW 4 7 2 4 1007.6 - 0.2
30/11:00pm 20.7 23.0 18.6 88 1.3 S 4 7 2 4 1007.6 - 0.2
30/10:30pm 21.8 23.6 18.8 83 1.9 S 7 9 4 5 1007.6 - 0.2
30/10:00pm 21.6 23.1 18.9 84 1.7 S 9 11 5 6 1007.6 - 0.2
30/09:30pm 21.9 23.4 18.9 83 1.9 SSE 9 9 5 5 1007.4 - 0.2
30/09:00pm 22.8 24.9 19.4 81 2.2 ENE 7 9 4 5 1007.1 1006.9 0.2
30/08:30pm 23.6 25.4 19.6 78 2.6 ENE 9 11 5 6 1006.7 - 0.2
30/08:00pm 24.2 25.5 19.2 73 3.2 ENE 11 13 6 7 1006.5 - 0.2
30/07:30pm 24.7 25.6 19.2 71 3.5 ENE 13 17 7 9 1006.3 - 0.2
30/07:00pm 25.2 25.6 19.0 68 4.0 ENE 15 20 8 11 1006.1 - 0.2
30/06:30pm 26.1 25.6 18.6 63 4.8 NE 19 26 10 14 1005.7 - 0.2
30/06:00pm 27.0 26.2 18.4 59 5.5 ENE 20 28 11 15 1005.4 1005.2 0.2
30/05:30pm 27.4 25.8 18.3 57 5.8 ENE 24 32 13 17 1005.2 - 0.2
30/05:00pm 28.1 26.4 18.1 54 6.4 ENE 24 32 13 17 1004.9 - 0.2
30/04:30pm 30.7 30.4 14.3 36 10.0 N 9 13 5 7 1004.9 - 0.2
30/04:00pm 30.8 30.7 14.0 36 10.2 N 7 15 4 8 1005.0 - 0.2
30/03:30pm 29.7 29.5 13.7 37 9.6 NNW 7 19 4 10 1005.2 - 0.2
30/03:00pm 30.3 31.0 14.6 38 9.6 S 4 11 2 6 1005.5 1005.3 0.2
30/02:30pm 30.6 30.2 15.2 39 9.5 SW 11 17 6 9 1006.0 - 0.2
30/02:00pm 29.9 30.7 13.6 36 9.8 WSW 2 9 1 5 1006.3 - 0.2
30/01:30pm 29.3 29.5 15.7 43 8.4 W 9 15 5 8 1006.7 - 0.2
30/01:00pm 29.0 29.9 16.1 45 8.0 E 6 11 3 6 1007.2 - 0.2
30/12:30pm 28.2 28.3 15.5 46 7.8 ESE 9 15 5 8 1007.7 - 0.2
30/12:00pm 27.9 29.4 16.7 50 7.0 W 4 11 2 6 1008.2 1008.0 0.2
30/11:30am 26.9 27.5 16.8 54 6.3 NW 9 20 5 11 1008.7 - 0.2
30/11:00am 26.9 28.1 17.3 55 6.0 N 7 15 4 8 1009.1 - 0.2
30/10:30am 26.6 27.7 16.6 54 6.2 E 6 11 3 6 1009.6 - 0.2
30/10:00am 26.1 27.1 16.4 55 6.0 NNE 6 15 3 8 1009.7 - 0.0
30/09:30am 25.0 25.9 17.5 63 4.7 NE 9 15 5 8 1009.8 - 0.0
30/09:00am 25.1 26.7 17.8 64 4.6 SE 6 11 3 6 1010.0 1009.8 1.2
30/08:30am 23.9 25.7 17.3 66 4.1 WSW 4 7 2 4 1010.1 - 1.2
30/08:00am 23.4 25.6 16.5 65 4.2 CALM 0 0 0 0 1010.1 - 1.2
30/07:30am 22.2 25.2 18.4 79 2.4 CALM 0 0 0 0 1010.0 - 1.2
30/07:00am 20.9 24.2 19.2 90 1.1 CALM 0 0 0 0 1009.9 - 1.2
30/06:30am 20.0 23.2 18.9 93 0.7 CALM 0 0 0 0 1009.7 - 1.2
30/06:00am 19.2 22.2 18.4 95 0.5 CALM 0 0 0 0 1009.5 1009.3 1.2
30/05:30am 19.0 21.8 17.9 93 0.7 CALM 0 0 0 0 1009.1 - 1.2
30/05:00am 19.2 22.0 17.9 92 0.8 CALM 0 0 0 0 1008.9 - 1.2
30/04:30am 19.5 22.4 18.2 92 0.8 CALM 0 0 0 0 1009.0 - 1.2
30/04:00am 19.6 22.7 18.6 94 0.6 CALM 0 0 0 0 1009.0 - 1.2
30/03:30am 20.0 22.9 18.2 89 1.1 CALM 0 0 0 0 1008.9 - 1.2
30/03:00am 19.5 22.5 18.4 93 0.7 CALM 0 0 0 0 1008.9 1008.7 1.2
30/02:30am 18.7 21.5 17.9 95 0.5 CALM 0 0 0 0 1009.0 - 1.2
30/02:00am 19.6 21.1 18.1 91 0.9 SSW 7 7 4 4 1009.2 - 1.2
30/01:30am 19.7 20.8 17.9 89 1.1 SSW 9 9 5 5 1009.6 - 1.2
30/01:00am 19.6 22.5 18.1 91 0.9 CALM 0 0 0 0 1009.7 - 1.2
30/12:30am 20.0 21.4 17.9 88 1.3 SSW 7 11 4 6 1009.6 - 1.2
30/12:00am 20.1 23.0 18.3 89 1.1 CALM 0 0 0 0 1009.7 1009.5 1.2
 
Date/Time
EST
Tmp

°C
App
Tmp
°C
Dew
Point
°C
Rel
Hum
%
Delta-T

°C
Wind Press
QNH
hPa
Press
MSL
hPa
Rain
since
9 am
mm
Dir
 
Spd
km/h
Gust
km/h
Spd
kts
Gust
kts
29/11:30pm 21.0 23.6 18.3 84 1.7 SE 2 6 1 3 1010.0 - 1.2
29/11:00pm 21.0 22.5 18.1 83 1.8 SSE 7 9 4 5 1010.1 - 1.2
29/10:30pm 21.2 22.1 18.3 83 1.8 SSE 11 15 6 8 1010.2 - 1.2
29/10:00pm 22.2 22.3 17.5 74 2.9 SE 13 17 7 9 1010.1 - 1.2
29/09:30pm 22.3 23.1 18.1 77 2.6 SE 11 17 6 9 1010.3 - 1.2
29/09:00pm 22.8 22.2 17.5 72 3.3 ENE 17 24 9 13 1009.6 1009.4 0.8
29/08:30pm 23.8 22.4 16.5 63 4.5 ENE 19 24 10 13 1009.3 - 0.2
29/08:00pm 23.7 21.7 16.5 64 4.4 ENE 22 28 12 15 1009.0 - 0.2
29/07:30pm 23.9 22.5 16.9 65 4.3 E 20 28 11 15 1008.8 - 0.2
29/07:00pm 24.6 23.1 16.7 61 4.9 ENE 20 30 11 16 1008.2 - 0.2
29/06:30pm 25.2 23.1 17.2 61 5.0 ENE 24 35 13 19 1007.6 - 0.2
29/06:00pm 25.5 23.8 17.2 60 5.2 NE 22 32 12 17 1007.2 1007.0 0.2
29/05:30pm 26.6 24.4 17.0 55 6.0 ENE 24 30 13 16 1006.8 - 0.2
29/05:00pm 26.8 24.6 17.0 55 6.1 NE 24 32 13 17 1006.4 - 0.2
29/04:30pm 27.1 24.4 16.7 53 6.5 NE 26 35 14 19 1006.1 - 0.2
29/04:00pm 29.5 29.2 15.4 42 8.7 S 11 15 6 8 1005.8 - 0.2
29/03:30pm 30.0 30.0 15.2 40 9.1 SSW 9 13 5 7 1006.0 - 0.2
29/03:00pm 29.6 29.7 15.5 42 8.7 SSW 9 15 5 8 1006.2 1006.0 0.2
29/02:30pm 28.9 28.9 15.2 43 8.4 SW 9 15 5 8 1006.4 - 0.2
29/02:00pm 28.6 29.1 15.0 43 8.3 SW 6 11 3 6 1006.6 - 0.2
29/01:30pm - - - - - N 4 13 2 7 1006.8 - 0.0
29/01:00pm 27.4 28.6 14.9 46 7.6 NW 2 11 1 6 1007.2 - 0.0
29/12:30pm 27.1 27.6 14.9 47 7.4 N 6 13 3 7 1007.5 - 0.0
29/12:00pm 27.6 27.7 15.5 47 7.4 E 9 15 5 8 1007.8 1007.6 0.0
29/11:30am 27.0 27.2 14.7 47 7.4 N 7 15 4 8 1008.3 - 0.0
29/11:00am 26.6 26.8 14.6 47 7.2 SE 7 11 4 6 1008.7 - 0.0
29/10:30am 26.6 27.0 15.2 49 6.9 ENE 7 13 4 7 1008.9 - 0.0
29/10:00am 25.5 25.7 14.2 49 6.7 SE 6 15 3 8 1009.1 - 0.0
29/09:30am 25.0 24.6 14.2 51 6.4 SSE 9 15 5 8 1009.1 - 0.0
29/09:00am 24.6 24.1 13.9 51 6.3 SSE 9 15 5 8 1009.1 1008.9 0.2
29/08:30am 23.9 22.5 13.4 51 6.1 SSE 13 19 7 10 1009.1 - 0.2
29/08:00am 23.3 21.2 13.7 54 5.6 S 17 26 9 14 1009.0 - 0.2
29/07:30am 22.0 19.7 13.1 57 5.1 S 17 22 9 12 1008.9 - 0.2
29/07:00am 21.2 20.3 13.6 62 4.4 SSW 11 13 6 7 1008.7 - 0.2
29/06:30am 19.7 20.9 13.8 69 3.4 CALM 0 0 0 0 1008.6 - 0.2
29/06:00am 19.2 19.7 14.0 72 3.0 SSW 4 9 2 5 1008.4 1008.2 0.2
29/05:30am 19.2 18.3 13.8 71 3.1 SSW 11 13 6 7 1008.0 - 0.2
29/05:00am 19.1 18.0 14.3 73 2.8 S 13 15 7 8 1007.6 - 0.2
29/04:30am 19.5 19.0 14.9 75 2.7 S 11 13 6 7 1007.4 - 0.2
29/04:00am 19.8 19.7 15.0 74 2.8 S 9 11 5 6 1007.4 - 0.2
29/03:30am 20.3 19.9 15.2 72 3.0 SSW 11 13 6 7 1007.2 - 0.2
29/03:00am 20.4 19.6 15.2 72 3.1 S 13 17 7 9 1007.2 1007.0 0.2
29/02:30am 20.5 19.8 15.3 72 3.1 SSW 13 17 7 9 1007.1 - 0.2
29/02:00am 20.3 19.4 15.8 75 2.7 S 15 19 8 10 1007.3 - 0.2
29/01:30am 20.1 21.2 16.6 80 2.1 S 6 9 3 5 1007.8 - 0.2
29/01:00am 20.3 19.6 16.3 78 2.4 S 15 19 8 10 1007.8 - 0.2
29/12:30am 21.3 20.0 15.8 71 3.3 SSW 17 19 9 10 1008.0 - 0.0
29/12:00am 21.3 21.2 16.0 72 3.2 SSW 11 15 6 8 1008.2 1008.0 0.0
 
Date/Time
EST
Tmp

°C
App
Tmp
°C
Dew
Point
°C
Rel
Hum
%
Delta-T

°C
Wind Press
QNH
hPa
Press
MSL
hPa
Rain
since
9 am
mm
Dir
 
Spd
km/h
Gust
km/h
Spd
kts
Gust
kts
28/11:30pm 21.5 21.1 16.2 72 3.2 SSW 13 17 7 9 1008.5 - 0.0

Latest Capital City Observations: Canberra | Sydney | Melbourne | Brisbane | Adelaide | Perth | Hobart | Darwin

Other Formats:

Comma delimited format used in spreadsheet applications
http://www.bom.gov.au/fwo/IDQ60901/IDQ60901.94568.axf

JavaScript Object Notation format (JSON) in row-major order
http://www.bom.gov.au/fwo/IDQ60901/IDQ60901.94568.json